createdAt,value
2019-01-30T00:01:57.086Z,20.44
2019-01-30T00:07:00.554Z,20.43
2019-01-30T00:12:04.194Z,20.43
2019-01-30T00:17:07.657Z,20.42
2019-01-30T00:22:11.126Z,20.42
2019-01-30T00:27:14.596Z,20.43
2019-01-30T00:32:18.056Z,20.41
2019-01-30T00:37:21.531Z,20.40
2019-01-30T00:42:24.998Z,20.40
2019-01-30T00:47:28.464Z,20.39
2019-01-30T00:52:31.933Z,20.40
2019-01-30T00:57:35.396Z,20.39
2019-01-30T01:02:38.949Z,20.39
2019-01-30T01:07:42.734Z,20.39
2019-01-30T01:12:46.263Z,20.41
2019-01-30T01:17:49.735Z,20.41
2019-01-30T01:22:53.202Z,20.41
2019-01-30T01:27:56.700Z,20.42
2019-01-30T01:33:00.159Z,20.43
2019-01-30T01:38:03.630Z,20.44
2019-01-30T01:43:07.088Z,20.43
2019-01-30T01:48:10.552Z,20.42
2019-01-30T01:53:14.016Z,20.41
2019-01-30T01:58:17.480Z,20.41
2019-01-30T02:03:20.944Z,20.41
2019-01-30T02:08:24.409Z,20.39
2019-01-30T02:13:27.881Z,20.40
2019-01-30T02:18:31.337Z,20.39
2019-01-30T02:23:34.799Z,20.40
2019-01-30T02:28:38.263Z,20.42
2019-01-30T02:33:41.727Z,20.43
2019-01-30T02:38:45.196Z,20.42
2019-01-30T02:43:48.666Z,20.41
2019-01-30T02:48:52.124Z,20.42
2019-01-30T02:53:55.622Z,20.41
2019-01-30T02:58:59.091Z,20.39
2019-01-30T03:04:02.547Z,20.38
2019-01-30T03:09:07.950Z,20.37
2019-01-30T03:14:11.416Z,20.38
2019-01-30T03:19:14.880Z,20.37
2019-01-30T03:24:18.346Z,20.37
2019-01-30T03:29:21.816Z,20.36
2019-01-30T03:34:25.288Z,20.37
2019-01-30T03:39:28.739Z,20.37
2019-01-30T03:44:32.208Z,20.38
2019-01-30T03:49:35.694Z,20.39
2019-01-30T03:54:39.157Z,20.39
2019-01-30T03:59:42.646Z,20.39
2019-01-30T04:04:46.103Z,20.38
2019-01-30T04:09:49.590Z,20.38
2019-01-30T04:14:53.077Z,20.38
2019-01-30T04:19:56.554Z,20.37
2019-01-30T04:25:00.033Z,20.36
2019-01-30T04:30:03.783Z,20.35
2019-01-30T04:35:07.600Z,20.35
2019-01-30T04:40:14.266Z,20.33
2019-01-30T04:45:23.047Z,20.36
2019-01-30T04:50:26.529Z,20.35
2019-01-30T04:55:30.009Z,20.35
2019-01-30T05:00:33.493Z,20.32
2019-01-30T05:05:36.972Z,20.31
2019-01-30T05:10:40.458Z,20.32
2019-01-30T05:15:43.956Z,20.35
2019-01-30T05:20:47.501Z,20.34
2019-01-30T05:25:50.984Z,20.34
2019-01-30T05:30:54.472Z,20.33
2019-01-30T05:35:57.962Z,20.33
2019-01-30T05:41:01.452Z,20.33
2019-01-30T05:46:04.927Z,20.32
2019-01-30T05:51:08.409Z,20.30
2019-01-30T05:56:11.891Z,20.30
2019-01-30T06:01:15.374Z,20.29
2019-01-30T06:06:18.856Z,20.28
2019-01-30T06:11:22.336Z,20.29
2019-01-30T06:16:25.821Z,20.27
2019-01-30T06:21:29.299Z,20.27
2019-01-30T06:26:32.783Z,20.27
2019-01-30T06:31:36.260Z,20.26
2019-01-30T06:36:39.742Z,20.26
2019-01-30T06:41:43.222Z,20.25
2019-01-30T06:46:46.708Z,20.25
2019-01-30T06:51:50.187Z,20.23
2019-01-30T06:56:53.663Z,20.24
2019-01-30T07:01:57.151Z,20.24
2019-01-30T07:07:00.634Z,20.24
2019-01-30T07:12:04.187Z,20.24
2019-01-30T07:17:07.678Z,20.24
2019-01-30T07:22:11.215Z,20.23
2019-01-30T07:27:14.705Z,20.23
2019-01-30T07:32:18.183Z,20.22
2019-01-30T07:37:21.669Z,20.23
2019-01-30T07:42:25.148Z,20.25
2019-01-30T07:47:28.635Z,20.25
2019-01-30T07:52:32.777Z,20.27
2019-01-30T07:57:36.386Z,20.26
2019-01-30T08:02:39.868Z,20.27
2019-01-30T08:07:43.356Z,18.94
2019-01-30T08:12:46.828Z,17.63
2019-01-30T08:17:50.318Z,16.63
2019-01-30T08:22:53.815Z,17.43
2019-01-30T08:27:57.448Z,17.93
2019-01-30T08:33:05.860Z,18.21
2019-01-30T08:38:06.513Z,18.39
2019-01-30T08:43:10.003Z,18.55
2019-01-30T08:48:13.486Z,18.69
2019-01-30T08:53:16.967Z,18.83
2019-01-30T08:58:20.458Z,18.93
2019-01-30T09:03:23.937Z,19.05
2019-01-30T09:08:27.420Z,19.15
2019-01-30T09:13:30.919Z,19.25
2019-01-30T09:18:34.386Z,19.33
2019-01-30T09:23:37.870Z,19.40
2019-01-30T09:28:41.351Z,19.47
2019-01-30T09:33:44.838Z,19.53
2019-01-30T09:38:48.317Z,19.61
2019-01-30T09:43:51.799Z,19.67
2019-01-30T09:48:55.274Z,19.73
2019-01-30T09:53:58.751Z,19.79
2019-01-30T09:59:02.233Z,19.83
2019-01-30T10:04:05.712Z,19.89
2019-01-30T10:09:09.630Z,19.93
2019-01-30T10:14:13.107Z,19.97
2019-01-30T10:19:16.588Z,20.02
2019-01-30T10:24:20.078Z,20.07
2019-01-30T10:29:23.557Z,20.09
2019-01-30T10:34:27.037Z,20.12
2019-01-30T10:39:30.519Z,20.17
2019-01-30T10:44:34.002Z,20.20
2019-01-30T10:49:37.479Z,20.22
2019-01-30T10:54:40.961Z,20.26
2019-01-30T10:59:44.441Z,20.29
2019-01-30T11:04:47.925Z,20.32
2019-01-30T11:09:51.405Z,20.36
2019-01-30T11:14:54.885Z,20.36
2019-01-30T11:19:58.365Z,20.37
2019-01-30T11:25:01.897Z,20.39
2019-01-30T11:30:08.801Z,20.41
2019-01-30T11:35:12.519Z,20.44
2019-01-30T11:40:20.868Z,20.46
2019-01-30T11:45:27.098Z,20.47
2019-01-30T11:50:30.748Z,20.49
2019-01-30T11:55:34.232Z,20.51
2019-01-30T12:00:51.960Z,20.52
2019-01-30T12:05:55.446Z,20.52
2019-01-30T12:10:59.004Z,19.17
2019-01-30T12:16:02.490Z,18.26
2019-01-30T12:21:05.974Z,18.78
2019-01-30T12:26:09.451Z,19.17
2019-01-30T12:31:12.933Z,19.39
2019-01-30T12:36:16.421Z,19.57
2019-01-30T12:41:19.904Z,19.70
2019-01-30T12:46:23.390Z,19.79
2019-01-30T12:51:26.872Z,19.88
2019-01-30T12:56:30.354Z,19.93
2019-01-30T13:01:33.880Z,20.00
2019-01-30T13:06:37.316Z,20.05
2019-01-30T13:11:40.800Z,20.11
2019-01-30T13:16:44.288Z,20.14
2019-01-30T13:21:47.751Z,20.19
2019-01-30T13:26:51.211Z,20.28
2019-01-30T13:31:54.677Z,20.31
2019-01-30T13:36:58.147Z,20.33
2019-01-30T13:42:01.610Z,20.39
2019-01-30T13:47:05.611Z,20.43
2019-01-30T13:52:09.106Z,20.48
2019-01-30T13:57:12.550Z,20.50
2019-01-30T14:02:16.028Z,20.53
2019-01-30T14:07:19.486Z,20.56
2019-01-30T14:12:23.857Z,20.58
2019-01-30T14:17:27.320Z,20.60
2019-01-30T14:22:30.814Z,20.63
2019-01-30T14:27:34.271Z,20.68
2019-01-30T14:32:37.757Z,20.70
2019-01-30T14:37:41.204Z,20.70
2019-01-30T14:42:44.737Z,20.70
2019-01-30T14:47:50.108Z,20.70
2019-01-30T14:52:53.672Z,20.71
2019-01-30T14:57:57.303Z,20.71
2019-01-30T15:03:00.769Z,20.72
2019-01-30T15:08:04.404Z,20.72
2019-01-30T15:13:08.117Z,20.74
2019-01-30T15:18:11.579Z,20.74
2019-01-30T15:23:15.040Z,20.75
2019-01-30T15:28:18.506Z,20.75
2019-01-30T15:33:21.968Z,20.75
2019-01-30T15:38:25.433Z,20.76
2019-01-30T15:43:28.900Z,20.78
2019-01-30T15:48:32.364Z,20.78
2019-01-30T15:53:35.829Z,20.77
2019-01-30T15:58:39.297Z,20.79
2019-01-30T16:03:42.765Z,20.79
2019-01-30T16:08:46.231Z,20.80
2019-01-30T16:13:49.777Z,20.80
2019-01-30T16:18:53.240Z,20.80
2019-01-30T16:23:56.705Z,20.85
2019-01-30T16:29:00.174Z,20.95
2019-01-30T16:34:03.641Z,20.97
2019-01-30T16:39:08.745Z,21.01
2019-01-30T16:44:12.238Z,21.04
2019-01-30T16:49:15.681Z,21.08
2019-01-30T16:54:19.146Z,21.12
2019-01-30T16:59:22.608Z,21.13
2019-01-30T17:04:26.140Z,21.15
2019-01-30T17:09:29.608Z,21.15
2019-01-30T17:14:33.083Z,21.17
2019-01-30T17:19:36.548Z,21.17
2019-01-30T17:24:40.011Z,21.19
2019-01-30T17:29:43.476Z,21.19
2019-01-30T17:34:46.939Z,21.21
2019-01-30T17:39:50.412Z,21.21
2019-01-30T17:44:53.879Z,21.21
2019-01-30T17:49:58.876Z,21.23
2019-01-30T17:55:04.541Z,21.24
2019-01-30T18:00:16.651Z,21.25
2019-01-30T18:05:20.286Z,21.25
2019-01-30T18:10:23.824Z,21.26
2019-01-30T18:15:27.370Z,21.27
2019-01-30T18:20:30.833Z,21.27
2019-01-30T18:25:34.304Z,21.29
2019-01-30T18:30:37.770Z,21.27
2019-01-30T18:35:41.234Z,21.31
2019-01-30T18:40:46.811Z,21.30
2019-01-30T18:45:50.293Z,21.33
2019-01-30T18:50:56.706Z,21.34
2019-01-30T18:55:58.952Z,21.34
2019-01-30T19:01:02.419Z,21.29
2019-01-30T19:06:06.123Z,21.26
2019-01-30T19:11:09.595Z,21.23
2019-01-30T19:16:13.061Z,21.20
2019-01-30T19:21:17.091Z,21.19
2019-01-30T19:26:20.556Z,21.17
2019-01-30T19:31:24.019Z,21.15
2019-01-30T19:36:27.486Z,21.12
2019-01-30T19:41:30.947Z,21.04
2019-01-30T19:46:34.413Z,21.09
2019-01-30T19:51:37.876Z,21.09
2019-01-30T19:56:41.343Z,21.08
2019-01-30T20:01:44.802Z,21.07
2019-01-30T20:06:48.265Z,21.07
2019-01-30T20:11:51.729Z,21.07
2019-01-30T20:16:55.197Z,21.07
2019-01-30T20:21:58.660Z,21.07
2019-01-30T20:27:02.140Z,21.06
2019-01-30T20:32:05.781Z,21.07
2019-01-30T20:37:09.250Z,21.04
2019-01-30T20:42:12.712Z,21.05
2019-01-30T20:47:16.181Z,21.04
2019-01-30T20:52:19.648Z,21.02
2019-01-30T20:57:23.116Z,21.00
2019-01-30T21:02:26.587Z,20.98
2019-01-30T21:07:37.135Z,20.96
2019-01-30T21:12:35.240Z,20.95
2019-01-30T21:17:38.705Z,20.95
2019-01-30T21:22:42.175Z,20.96
2019-01-30T21:27:45.635Z,20.96
2019-01-30T21:32:49.246Z,20.94
2019-01-30T21:37:52.710Z,20.93
2019-01-30T21:42:56.373Z,20.93
2019-01-30T21:47:59.843Z,20.93
2019-01-30T21:53:03.328Z,20.91
2019-01-30T21:58:06.887Z,20.91
2019-01-30T22:03:10.374Z,20.91
2019-01-30T22:08:13.857Z,20.90
2019-01-30T22:13:17.343Z,20.90
2019-01-30T22:18:20.825Z,20.90
2019-01-30T22:23:24.309Z,20.90
2019-01-30T22:28:27.805Z,20.89
2019-01-30T22:33:31.360Z,20.89
2019-01-30T22:38:34.843Z,20.88
2019-01-30T22:43:38.329Z,20.88
2019-01-30T22:48:41.813Z,20.87
2019-01-30T22:53:45.298Z,20.87
2019-01-30T22:58:48.783Z,20.87
2019-01-30T23:04:04.037Z,20.86
2019-01-30T23:09:39.442Z,20.86
2019-01-30T23:14:46.750Z,20.84
2019-01-30T23:19:53.350Z,20.84
2019-01-30T23:25:16.160Z,20.84
2019-01-30T23:30:34.700Z,20.83
2019-01-30T23:36:03.843Z,20.83
2019-01-30T23:41:46.892Z,20.83
2019-01-30T23:47:09.716Z,20.83
2019-01-30T23:52:35.685Z,20.82
2019-01-30T23:57:51.352Z,20.82
